createdAt,value
2017-11-05T00:01:03.446Z,20.23
2017-11-05T00:03:32.050Z,20.40
2017-11-05T00:05:58.607Z,20.50
2017-11-05T00:08:25.881Z,19.92
2017-11-05T00:10:53.037Z,19.80
2017-11-05T00:13:20.330Z,20.73
2017-11-05T00:15:47.501Z,19.85
2017-11-05T00:18:14.774Z,18.83
2017-11-05T00:20:42.499Z,18.50
2017-11-05T00:23:09.086Z,18.25
2017-11-05T00:25:35.569Z,18.40
2017-11-05T00:28:03.271Z,18.05
2017-11-05T00:30:29.727Z,18.30
2017-11-05T00:32:56.273Z,17.98
2017-11-05T00:35:23.521Z,17.05
2017-11-05T00:37:50.106Z,17.83
2017-11-05T00:40:16.542Z,18.00
2017-11-05T00:42:43.728Z,17.52
2017-11-05T00:45:11.114Z,16.70
2017-11-05T00:47:38.397Z,16.85
2017-11-05T00:50:04.866Z,16.60
2017-11-05T00:52:31.303Z,16.10
2017-11-05T00:54:57.859Z,15.90
2017-11-05T00:57:24.311Z,14.70
2017-11-05T00:59:51.414Z,15.38
2017-11-05T01:02:17.941Z,15.48
2017-11-05T01:04:45.220Z,15.90
2017-11-05T01:07:11.773Z,16.35
2017-11-05T01:09:39.001Z,16.27
2017-11-05T01:12:05.509Z,15.75
2017-11-05T01:14:32.713Z,15.75
2017-11-05T01:16:59.127Z,16.92
2017-11-05T01:19:26.300Z,16.48
2017-11-05T01:21:58.347Z,17.05
2017-11-05T01:24:24.771Z,16.80
2017-11-05T01:26:51.298Z,16.62
2017-11-05T01:29:18.578Z,17.70
2017-11-05T01:31:48.250Z,18.62
2017-11-05T01:34:14.759Z,18.10
2017-11-05T01:36:42.138Z,18.15
2017-11-05T01:39:08.694Z,17.95
2017-11-05T01:41:35.354Z,19.65
2017-11-05T01:44:02.607Z,18.73
2017-11-05T01:46:29.805Z,18.05
2017-11-05T01:48:56.360Z,20.33
2017-11-05T01:51:25.595Z,19.37
2017-11-05T01:53:52.063Z,19.50
2017-11-05T01:56:18.593Z,20.27
2017-11-05T01:58:45.254Z,23.52
2017-11-05T02:01:13.485Z,25.33
2017-11-05T02:03:40.036Z,25.90
2017-11-05T02:06:06.548Z,25.45
2017-11-05T02:08:33.949Z,25.17
2017-11-05T02:11:00.648Z,28.17
2017-11-05T02:13:27.263Z,30.73
2017-11-05T02:15:54.537Z,30.40
2017-11-05T02:18:21.761Z,31.45
2017-11-05T02:20:48.371Z,30.48
2017-11-05T02:23:15.662Z,32.08
2017-11-05T02:25:42.211Z,30.40
2017-11-05T02:28:10.718Z,33.53
2017-11-05T02:30:37.248Z,31.75
2017-11-05T02:33:04.810Z,31.80
2017-11-05T02:35:31.336Z,31.70
2017-11-05T02:37:57.864Z,30.27
2017-11-05T02:40:24.401Z,32.33
2017-11-05T02:42:51.620Z,32.00
2017-11-05T02:45:18.250Z,30.85
2017-11-05T02:47:46.631Z,33.60
2017-11-05T02:50:13.152Z,34.92
2017-11-05T02:52:39.698Z,31.17
2017-11-05T02:55:07.391Z,31.33
2017-11-05T02:57:33.942Z,31.45
2017-11-05T03:00:00.521Z,33.25
2017-11-05T03:02:27.799Z,34.03
2017-11-05T03:04:54.413Z,29.05
2017-11-05T03:07:20.939Z,31.67
2017-11-05T03:09:47.628Z,32.65
2017-11-05T03:12:14.205Z,32.75
2017-11-05T03:14:40.750Z,32.23
2017-11-05T03:17:07.283Z,32.28
2017-11-05T03:19:34.575Z,29.27
2017-11-05T03:22:01.106Z,30.27
2017-11-05T03:24:27.891Z,31.35
2017-11-05T03:26:55.266Z,29.95
2017-11-05T03:29:22.530Z,30.98
2017-11-05T03:31:49.968Z,29.42
2017-11-05T03:34:16.580Z,29.60
2017-11-05T03:36:43.828Z,29.90
2017-11-05T03:39:10.616Z,30.33
2017-11-05T03:41:41.353Z,28.38
2017-11-05T03:44:08.643Z,30.53
2017-11-05T03:46:36.019Z,28.23
2017-11-05T03:49:03.950Z,29.15
2017-11-05T03:51:30.635Z,31.00
2017-11-05T03:53:57.330Z,29.10
2017-11-05T03:56:24.607Z,28.80
2017-11-05T03:58:51.173Z,28.90
2017-11-05T04:01:18.541Z,28.55
2017-11-05T04:03:45.809Z,27.98
2017-11-05T04:06:13.192Z,27.75
2017-11-05T04:08:43.127Z,31.95
2017-11-05T04:11:09.634Z,30.13
2017-11-05T04:13:36.347Z,28.25
2017-11-05T04:16:03.011Z,27.90
2017-11-05T04:18:29.610Z,28.87
2017-11-05T04:20:56.223Z,28.02
2017-11-05T04:23:23.603Z,27.43
2017-11-05T04:25:50.122Z,27.87
2017-11-05T04:28:17.698Z,28.47
2017-11-05T04:30:44.236Z,27.20
2017-11-05T04:33:10.783Z,28.80
2017-11-05T04:35:38.541Z,29.60
2017-11-05T04:38:05.747Z,28.33
2017-11-05T04:40:32.215Z,27.73
2017-11-05T04:45:24.984Z,27.52
2017-11-05T04:47:51.654Z,29.73
2017-11-05T04:50:18.199Z,27.02
2017-11-05T04:52:45.442Z,26.00
2017-11-05T04:55:12.031Z,24.40
2017-11-05T04:57:39.403Z,27.20
2017-11-05T05:00:06.688Z,24.73
2017-11-05T05:02:33.444Z,24.67
2017-11-05T05:04:59.960Z,25.62
2017-11-05T05:07:26.465Z,24.13
2017-11-05T05:09:53.783Z,25.63
2017-11-05T05:12:20.396Z,23.02
2017-11-05T05:14:47.010Z,22.90
2017-11-05T05:17:14.433Z,24.23
2017-11-05T05:19:41.693Z,23.52
2017-11-05T05:22:08.928Z,22.60
2017-11-05T05:24:35.542Z,22.60
2017-11-05T05:27:02.115Z,22.90
2017-11-05T05:29:28.653Z,21.48
2017-11-05T05:31:55.879Z,20.83
2017-11-05T05:34:23.423Z,20.75
2017-11-05T05:36:50.707Z,21.83
2017-11-05T05:39:17.232Z,18.93
2017-11-05T05:41:44.623Z,20.12
2017-11-05T05:44:11.177Z,19.50
2017-11-05T05:46:38.442Z,18.58
2017-11-05T05:49:05.729Z,20.20
2017-11-05T05:51:32.389Z,18.02
2017-11-05T05:53:59.001Z,18.45
2017-11-05T05:56:26.326Z,18.75
2017-11-05T05:58:53.700Z,17.95
2017-11-05T06:01:21.075Z,17.85
2017-11-05T06:03:49.275Z,18.53
2017-11-05T06:06:15.932Z,17.90
2017-11-05T06:08:43.218Z,18.90
2017-11-05T06:11:10.113Z,16.73
2017-11-05T06:13:36.731Z,16.87
2017-11-05T06:16:04.215Z,15.80
2017-11-05T06:18:30.779Z,16.52
2017-11-05T06:20:57.302Z,16.10
2017-11-05T06:23:23.989Z,15.35
2017-11-05T06:25:51.467Z,16.07
2017-11-05T06:28:19.728Z,15.63
2017-11-05T06:30:46.322Z,15.15
2017-11-05T06:33:13.904Z,16.73
2017-11-05T06:35:41.447Z,15.13
2017-11-05T06:38:08.045Z,14.93
2017-11-05T06:40:34.606Z,14.65
2017-11-05T06:43:01.420Z,14.95
2017-11-05T06:45:28.026Z,15.07
2017-11-05T06:47:55.608Z,14.80
2017-11-05T06:50:26.364Z,15.30
2017-11-05T06:52:53.022Z,15.48
2017-11-05T06:55:19.652Z,14.90
2017-11-05T06:57:50.943Z,15.00
2017-11-05T07:00:18.243Z,15.60
2017-11-05T07:02:44.765Z,16.20
2017-11-05T07:05:12.051Z,16.02
2017-11-05T07:07:38.815Z,16.15
2017-11-05T07:10:06.755Z,16.37
2017-11-05T07:12:33.317Z,15.52
2017-11-05T07:15:00.127Z,15.90
2017-11-05T07:17:26.789Z,16.12
2017-11-05T07:19:53.507Z,15.70
2017-11-05T07:22:20.314Z,15.35
2017-11-05T07:24:46.871Z,16.80
2017-11-05T07:27:13.534Z,15.90
2017-11-05T07:29:41.147Z,16.40
2017-11-05T07:32:07.775Z,16.60
2017-11-05T07:34:34.436Z,18.27
2017-11-05T07:37:00.975Z,16.70
2017-11-05T07:39:28.458Z,18.30
2017-11-05T07:41:55.850Z,17.83
2017-11-05T07:44:22.515Z,17.50
2017-11-05T07:46:49.170Z,17.55
2017-11-05T07:49:16.650Z,17.65
2017-11-05T07:51:43.310Z,17.83
2017-11-05T07:54:10.687Z,18.70
2017-11-05T07:56:38.067Z,18.73
2017-11-05T07:59:04.725Z,19.08
2017-11-05T08:01:31.385Z,18.87
2017-11-05T08:03:58.760Z,20.73
2017-11-05T08:06:26.141Z,20.87
2017-11-05T08:08:53.400Z,19.87
2017-11-05T08:11:27.339Z,18.92
2017-11-05T08:13:53.997Z,17.60
2017-11-05T08:16:21.203Z,21.48
2017-11-05T08:18:48.851Z,21.52
2017-11-05T08:21:16.300Z,17.48
2017-11-05T08:23:43.600Z,19.33
2017-11-05T08:26:10.266Z,18.67
2017-11-05T08:28:38.972Z,18.70
2017-11-05T08:31:06.255Z,19.33
2017-11-05T08:33:32.752Z,21.45
2017-11-05T08:35:59.364Z,23.45
2017-11-05T08:38:26.740Z,21.37
2017-11-05T08:40:54.118Z,26.17
2017-11-05T08:43:20.675Z,19.20
2017-11-05T08:45:48.052Z,20.23
2017-11-05T08:48:15.701Z,18.65
2017-11-05T08:50:42.161Z,19.27
2017-11-05T08:53:08.717Z,19.48
2017-11-05T08:55:35.517Z,19.90
2017-11-05T08:58:01.953Z,19.17
2017-11-05T09:00:29.956Z,21.02
2017-11-05T09:02:56.621Z,20.20
2017-11-05T09:05:23.183Z,21.20
2017-11-05T09:08:04.876Z,21.35
2017-11-05T09:10:31.415Z,18.40
2017-11-05T09:12:59.116Z,16.10
2017-11-05T09:15:26.498Z,15.52
2017-11-05T09:17:54.208Z,18.60
2017-11-05T09:20:21.046Z,18.10
2017-11-05T09:22:47.616Z,17.80
2017-11-05T09:25:16.410Z,16.70
2017-11-05T09:27:42.908Z,16.25
2017-11-05T09:30:09.530Z,16.10
2017-11-05T09:32:37.218Z,15.07
2017-11-05T09:35:03.869Z,16.37
2017-11-05T09:37:30.430Z,16.50
2017-11-05T09:39:56.993Z,15.95
2017-11-05T09:42:23.445Z,16.37
2017-11-05T09:44:50.969Z,15.68
2017-11-05T09:47:17.480Z,16.75
2017-11-05T09:49:44.857Z,16.20
2017-11-05T09:52:12.091Z,16.13
2017-11-05T09:54:41.248Z,17.65
2017-11-05T09:57:08.301Z,17.27
2017-11-05T09:59:35.570Z,17.10
2017-11-05T10:02:02.150Z,16.10
2017-11-05T10:04:29.717Z,16.70
2017-11-05T10:06:58.099Z,16.60
2017-11-05T10:09:24.692Z,16.87
2017-11-05T10:11:51.252Z,16.90
2017-11-05T10:14:17.910Z,17.02
2017-11-05T10:16:46.512Z,16.35
2017-11-05T10:19:14.008Z,17.60
2017-11-05T10:21:40.550Z,17.70
2017-11-05T10:24:07.017Z,18.42
2017-11-05T10:26:33.542Z,16.98
2017-11-05T10:29:00.020Z,16.87
2017-11-05T10:31:28.727Z,16.70
2017-11-05T10:33:55.282Z,17.35
2017-11-05T10:36:26.392Z,16.30
2017-11-05T10:38:52.910Z,16.37
2017-11-05T10:41:19.383Z,16.25
2017-11-05T10:43:45.835Z,17.15
2017-11-05T10:46:12.281Z,16.40
2017-11-05T10:48:38.999Z,15.95
2017-11-05T10:51:05.469Z,16.40
2017-11-05T10:53:32.673Z,15.80
2017-11-05T10:55:59.144Z,16.05
2017-11-05T10:58:25.590Z,16.60
2017-11-05T11:00:52.132Z,15.52
2017-11-05T11:03:21.400Z,14.80
2017-11-05T11:05:48.010Z,15.60
2017-11-05T11:08:15.294Z,15.68
2017-11-05T11:10:41.845Z,16.60
2017-11-05T11:13:08.403Z,15.85
2017-11-05T11:15:35.650Z,16.50
2017-11-05T11:18:02.236Z,18.05
2017-11-05T11:20:29.518Z,16.30
2017-11-05T11:22:56.068Z,16.75
2017-11-05T11:25:22.796Z,16.20
2017-11-05T11:27:49.390Z,15.67
2017-11-05T11:30:17.994Z,16.33
2017-11-05T11:32:44.480Z,16.50
2017-11-05T11:35:11.617Z,18.00
2017-11-05T11:37:39.314Z,17.23
2017-11-05T11:40:05.810Z,17.98
2017-11-05T11:42:32.433Z,19.33
2017-11-05T11:44:58.903Z,19.15
2017-11-05T11:47:27.593Z,19.42
2017-11-05T11:49:54.249Z,20.67
2017-11-05T11:52:20.806Z,21.85
2017-11-05T11:54:47.363Z,20.00
2017-11-05T11:57:14.128Z,20.60
2017-11-05T11:59:40.688Z,20.95
2017-11-05T12:02:07.244Z,23.42
2017-11-05T12:04:34.211Z,26.80
2017-11-05T12:07:01.283Z,25.02
2017-11-05T12:09:27.840Z,20.75
2017-11-05T12:11:55.388Z,20.90
2017-11-05T12:14:21.977Z,22.65
2017-11-05T12:16:48.451Z,20.42
2017-11-05T12:19:16.120Z,31.15
2017-11-05T12:21:42.781Z,19.80
2017-11-05T12:24:09.340Z,21.27
2017-11-05T12:26:36.101Z,23.20
2017-11-05T12:29:03.333Z,21.75
2017-11-05T12:31:30.037Z,21.02
2017-11-05T12:33:56.807Z,21.00
2017-11-05T12:36:23.483Z,20.40
2017-11-05T12:38:49.963Z,20.60
2017-11-05T12:41:17.086Z,21.75
2017-11-05T12:43:44.754Z,21.55
2017-11-05T12:46:11.535Z,21.67
2017-11-05T12:48:38.808Z,22.03
2017-11-05T12:51:05.471Z,23.83
2017-11-05T12:53:32.130Z,24.47
2017-11-05T12:55:58.687Z,21.92
2017-11-05T12:58:25.963Z,21.70
2017-11-05T13:00:52.426Z,23.20
2017-11-05T13:03:19.084Z,19.92
2017-11-05T13:05:45.744Z,21.55
2017-11-05T13:08:13.127Z,22.02
2017-11-05T13:10:39.778Z,22.42
2017-11-05T13:13:07.053Z,21.30
2017-11-05T13:15:33.917Z,25.12
2017-11-05T13:18:01.400Z,23.90
2017-11-05T13:20:32.046Z,23.33
2017-11-05T13:22:58.689Z,23.00
2017-11-05T13:25:26.494Z,24.23
2017-11-05T13:27:53.051Z,22.85
2017-11-05T13:30:27.382Z,23.38
2017-11-05T13:32:54.759Z,24.80
2017-11-05T13:35:22.239Z,24.67
2017-11-05T13:37:48.796Z,24.77
2017-11-05T13:40:15.544Z,26.10
2017-11-05T13:42:45.298Z,24.45
2017-11-05T13:45:12.156Z,24.55
2017-11-05T13:47:38.814Z,26.95
2017-11-05T13:50:06.804Z,25.33
2017-11-05T13:52:33.876Z,27.55
2017-11-05T13:55:00.946Z,26.33
2017-11-05T13:57:28.041Z,24.67
2017-11-05T13:59:55.676Z,23.60
2017-11-05T14:02:22.779Z,25.50
2017-11-05T14:04:50.861Z,24.40
2017-11-05T14:07:18.137Z,23.90
2017-11-05T14:09:45.412Z,24.80
2017-11-05T14:12:12.378Z,26.08
2017-11-05T14:14:40.674Z,26.00
2017-11-05T14:17:07.540Z,27.60
2017-11-05T14:19:35.122Z,28.45
2017-11-05T14:22:01.782Z,27.90
2017-11-05T14:24:28.751Z,27.33
2017-11-05T14:26:55.309Z,28.10
2017-11-05T14:29:21.867Z,30.35
2017-11-05T14:31:49.545Z,28.40
2017-11-05T14:34:16.092Z,29.60
2017-11-05T14:36:43.461Z,30.20
2017-11-05T14:39:10.042Z,28.65
2017-11-05T14:41:37.318Z,29.90
2017-11-05T14:44:04.642Z,27.95
2017-11-05T14:46:31.456Z,29.85
2017-11-05T14:48:58.834Z,59.50
2017-11-05T14:51:26.221Z,55.22
2017-11-05T14:53:52.768Z,31.10
2017-11-05T14:56:20.044Z,27.62
2017-11-05T14:58:46.703Z,29.35
2017-11-05T15:01:13.261Z,30.27
2017-11-05T15:03:40.523Z,29.65
2017-11-05T15:06:07.814Z,31.55
2017-11-05T15:08:34.307Z,32.05
2017-11-05T15:11:00.779Z,32.10
2017-11-05T15:13:27.793Z,34.65
2017-11-05T15:15:55.479Z,33.13
2017-11-05T15:18:22.013Z,33.30
2017-11-05T15:20:49.309Z,30.25
2017-11-05T15:23:15.971Z,32.03
2017-11-05T15:25:42.541Z,32.38
2017-11-05T15:28:12.445Z,33.60
2017-11-05T15:30:40.005Z,33.13
2017-11-05T15:33:07.421Z,33.13
2017-11-05T15:35:34.094Z,34.55
2017-11-05T15:38:00.849Z,34.28
2017-11-05T15:40:27.509Z,35.03
2017-11-05T15:42:54.610Z,33.43
2017-11-05T15:45:21.236Z,34.33
2017-11-05T15:47:47.898Z,37.53
2017-11-05T15:50:14.765Z,35.95
2017-11-05T15:52:41.832Z,39.75
2017-11-05T15:55:09.105Z,56.40
2017-11-05T15:57:37.098Z,38.95
2017-11-05T16:00:03.758Z,38.72
2017-11-05T16:02:30.929Z,39.00
2017-11-05T16:05:00.384Z,39.10
2017-11-05T16:07:27.592Z,39.15
2017-11-05T16:09:57.491Z,41.47
2017-11-05T16:12:28.285Z,39.47
2017-11-05T16:14:55.072Z,40.63
2017-11-05T16:17:24.277Z,39.97
2017-11-05T16:19:51.878Z,41.20
2017-11-05T16:22:31.835Z,40.42
2017-11-05T16:25:00.288Z,68.20
2017-11-05T16:27:27.715Z,47.28
2017-11-05T16:29:54.313Z,41.50
2017-11-05T16:32:21.028Z,44.45
2017-11-05T16:34:48.600Z,39.85
2017-11-05T16:37:16.089Z,41.00
2017-11-05T16:39:43.063Z,39.60
2017-11-05T16:42:09.780Z,42.62
2017-11-05T16:44:38.018Z,40.90
2017-11-05T16:47:06.537Z,41.13
2017-11-05T16:49:33.486Z,74.57
2017-11-05T16:52:00.250Z,75.30
2017-11-05T16:54:27.011Z,43.70
2017-11-05T16:56:55.103Z,45.00
2017-11-05T16:59:22.172Z,41.08
2017-11-05T17:01:49.552Z,38.67
2017-11-05T17:04:16.131Z,36.17
2017-11-05T17:06:42.672Z,38.90
2017-11-05T17:09:09.326Z,38.45
2017-11-05T17:11:36.664Z,37.08
2017-11-05T17:14:03.264Z,88.93
2017-11-05T17:16:29.925Z,40.17
2017-11-05T17:18:56.582Z,39.63
2017-11-05T17:21:24.168Z,40.05
2017-11-05T17:23:51.497Z,36.17
2017-11-05T17:26:18.797Z,37.25
2017-11-05T17:28:46.035Z,35.30
2017-11-05T17:31:12.651Z,36.17
2017-11-05T17:33:39.140Z,37.25
2017-11-05T17:36:05.765Z,38.20
2017-11-05T17:38:33.450Z,46.20
2017-11-05T17:41:00.110Z,35.78
2017-11-05T17:43:27.383Z,24.98
2017-11-05T17:45:54.255Z,16.83
2017-11-05T17:48:21.525Z,13.38
2017-11-05T17:50:48.800Z,11.68
2017-11-05T17:53:15.375Z,11.13
2017-11-05T17:55:41.917Z,9.75
2017-11-05T17:58:08.475Z,8.30
2017-11-05T18:00:35.440Z,6.50
2017-11-05T18:03:02.204Z,4.70
2017-11-05T18:05:28.763Z,3.00
2017-11-05T18:07:55.274Z,3.70
2017-11-05T18:10:22.084Z,3.75
2017-11-05T18:12:49.358Z,3.40
2017-11-05T18:15:16.125Z,5.30
2017-11-05T18:17:46.661Z,3.10
2017-11-05T18:20:13.270Z,3.70
2017-11-05T18:22:39.889Z,4.10
2017-11-05T18:25:06.652Z,4.40
2017-11-05T18:27:33.942Z,2.40
2017-11-05T18:30:00.596Z,2.50
2017-11-05T18:32:27.249Z,2.80
2017-11-05T18:34:57.487Z,2.40
2017-11-05T18:37:24.356Z,2.80
2017-11-05T18:39:50.993Z,3.60
2017-11-05T18:42:19.005Z,3.80
2017-11-05T18:44:45.539Z,3.40
2017-11-05T18:47:12.325Z,3.50
2017-11-05T18:49:40.569Z,2.78
2017-11-05T18:55:08.205Z,3.03
2017-11-05T18:57:34.711Z,7.10
2017-11-05T19:00:01.541Z,2.80
2017-11-05T19:02:28.510Z,2.20
2017-11-05T19:04:55.477Z,2.75
2017-11-05T19:07:22.326Z,2.80
2017-11-05T19:09:49.196Z,2.30
2017-11-05T19:12:15.750Z,2.00
2017-11-05T19:14:43.131Z,3.70
2017-11-05T19:17:09.789Z,3.30
2017-11-05T19:19:37.064Z,2.70
2017-11-05T19:22:03.728Z,3.40
2017-11-05T19:24:31.427Z,3.20
2017-11-05T19:26:58.170Z,3.50
2017-11-05T19:29:24.829Z,2.90
2017-11-05T19:31:53.416Z,3.50
2017-11-05T19:34:20.971Z,3.08
2017-11-05T19:36:47.677Z,4.82
2017-11-05T19:39:14.336Z,3.58
2017-11-05T19:41:41.713Z,3.50
2017-11-05T19:44:08.477Z,3.50
2017-11-05T19:46:35.553Z,2.90
2017-11-05T19:49:05.019Z,3.40
2017-11-05T19:51:32.756Z,3.35
2017-11-05T19:54:00.559Z,3.95
2017-11-05T19:56:27.107Z,3.50
2017-11-05T19:58:54.171Z,2.30
2017-11-05T20:01:20.828Z,3.60
2017-11-05T20:03:48.142Z,3.80
2017-11-05T20:06:16.196Z,3.70
2017-11-05T20:08:44.890Z,3.33
2017-11-05T20:11:11.569Z,4.18
2017-11-05T20:13:40.355Z,4.30
2017-11-05T20:16:10.047Z,4.00
2017-11-05T20:18:37.594Z,4.57
2017-11-05T20:21:05.777Z,4.37
2017-11-05T20:23:32.641Z,4.30
2017-11-05T20:25:59.170Z,3.62
2017-11-05T20:28:26.473Z,3.20
2017-11-05T20:30:53.246Z,3.10
2017-11-05T20:33:19.921Z,3.40
2017-11-05T20:35:46.465Z,4.30
2017-11-05T20:38:13.119Z,3.40
2017-11-05T20:40:39.678Z,3.33
2017-11-05T20:43:06.234Z,2.60
2017-11-05T20:45:33.303Z,2.90
2017-11-05T20:47:59.962Z,3.10
2017-11-05T20:50:26.915Z,3.50
2017-11-05T20:52:54.307Z,3.20
2017-11-05T20:55:23.222Z,3.30
2017-11-05T20:57:49.734Z,4.32
2017-11-05T21:00:16.542Z,5.37
2017-11-05T21:02:43.102Z,5.90
2017-11-05T21:05:09.584Z,5.70
2017-11-05T21:07:36.729Z,6.10
2017-11-05T21:10:03.250Z,6.10
2017-11-05T21:12:29.740Z,6.55
2017-11-05T21:14:56.832Z,6.10
2017-11-05T21:17:23.369Z,6.10
2017-11-05T21:19:50.642Z,4.50
2017-11-05T21:22:17.819Z,4.22
2017-11-05T21:24:44.359Z,4.93
2017-11-05T21:27:11.585Z,3.60
2017-11-05T21:29:38.498Z,4.00
2017-11-05T21:32:06.608Z,4.45
2017-11-05T21:34:33.680Z,4.80
2017-11-05T21:37:00.163Z,5.87
2017-11-05T21:39:26.794Z,6.78
2017-11-05T21:41:53.350Z,6.80
2017-11-05T21:44:20.931Z,6.90
2017-11-05T21:46:48.166Z,6.60
2017-11-05T21:49:15.484Z,7.05
2017-11-05T21:51:42.040Z,6.83
2017-11-05T21:54:09.230Z,6.70
2017-11-05T21:56:35.656Z,6.50
2017-11-05T21:59:02.225Z,6.97
2017-11-05T22:01:29.467Z,6.85
2017-11-05T22:03:56.075Z,8.87
2017-11-05T22:06:22.618Z,7.62
2017-11-05T22:08:49.891Z,7.20
2017-11-05T22:11:17.175Z,7.45
2017-11-05T22:13:43.725Z,7.80
2017-11-05T22:16:11.100Z,8.13
2017-11-05T22:18:38.374Z,7.30
2017-11-05T22:21:05.635Z,7.75
2017-11-05T22:23:32.925Z,8.20
2017-11-05T22:26:00.133Z,7.90
2017-11-05T22:28:26.657Z,7.73
2017-11-05T22:30:53.215Z,7.68
2017-11-05T22:33:19.772Z,8.30
2017-11-05T22:35:47.016Z,8.45
2017-11-05T22:38:13.486Z,8.80
2017-11-05T22:40:40.720Z,8.43
2017-11-05T22:43:08.022Z,8.82
2017-11-05T22:45:36.042Z,9.10
2017-11-05T22:48:03.269Z,9.20
2017-11-05T22:50:42.480Z,9.88
2017-11-05T22:53:08.675Z,9.93
2017-11-05T22:55:34.901Z,9.80
2017-11-05T22:58:01.864Z,9.68
2017-11-05T23:00:28.074Z,9.77
2017-11-05T23:02:54.294Z,9.70
2017-11-05T23:05:20.508Z,9.00
2017-11-05T23:07:46.741Z,10.00
2017-11-05T23:10:12.982Z,10.27
2017-11-05T23:12:39.220Z,9.73
2017-11-05T23:15:05.432Z,9.70
2017-11-05T23:17:31.657Z,11.00
2017-11-05T23:19:57.892Z,11.27
2017-11-05T23:22:24.084Z,12.45
2017-11-05T23:24:51.084Z,12.55
2017-11-05T23:27:17.327Z,13.80
2017-11-05T23:29:43.515Z,13.95
2017-11-05T23:32:09.775Z,13.13
2017-11-05T23:34:36.019Z,13.80
2017-11-05T23:37:02.260Z,14.45
2017-11-05T23:39:29.220Z,16.17
2017-11-05T23:41:56.195Z,15.80
2017-11-05T23:44:22.417Z,16.45
2017-11-05T23:46:48.612Z,16.50
2017-11-05T23:49:15.544Z,18.40
2017-11-05T23:51:42.489Z,20.15
2017-11-05T23:54:09.408Z,20.37
2017-11-05T23:56:35.632Z,19.70
2017-11-05T23:59:02.556Z,23.38
